PWSweather.com
Personal Weather Stations
Station Observations
KWIPARKF
Flambeau River State Forest, Park Falls, WI 54552

Flambeau River State ForestPark Falls, WI 54552

Lat: 45.81943, Lon: -90.61676

Elevation: 1476

Station Type: Davis Vantage Pro2 Plus

www.flambeauforestweather.com

High Low Average
Temperature 43.0°F6.1°C 0.8°F-17.3°C 22.3°F-5.4°C
Dew Point 23.2°F-4.9°C -2.7°F-19.3°C 9.9°F-12.3°C
Winds 1.2 mph 1.9 kmh Calm Calm Calm WSWCalm WSW
Wind Gusts 3.5 mph5.6 kmh -- --
Humidity 90% 29% 64%
Pressure 30.32 in1026.8 mb 30.16 in1021.3 mb -
Precipitation 0.00 in0.0 mm - -
Hour Temp Dew Point Humidity Winds Wind Gusts Pressure Precip Precip Rate Daily Precip Total
12:00 AM 8.9°F-12.8°C 3.8°F-15.7°C 79% Calm Calm -- 30.23 in1023.7 mb - 0.00 in0.0 mm 0.00 in0.0 mm
12:10 AM 8.6°F-13.0°C 3.4°F-15.9°C 79% Calm Calm -- 30.23 in1023.7 mb - 0.00 in0.0 mm 0.00 in0.0 mm
12:20 AM 8.3°F-13.2°C 3.1°F-16.1°C 79% Calm Calm -- 30.23 in1023.7 mb - 0.00 in0.0 mm 0.00 in0.0 mm
12:30 AM 8.0°F-13.3°C 2.8°F-16.2°C 79% Calm Calm -- 30.23 in1023.7 mb - 0.00 in0.0 mm 0.00 in0.0 mm
12:40 AM 7.8°F-13.4°C 3.2°F-16.0°C 81% Calm Calm -- 30.24 in1024.0 mb - 0.00 in0.0 mm 0.00 in0.0 mm
12:50 AM 7.6°F-13.6°C 3.0°F-16.1°C 81% Calm Calm -- 30.25 in1024.4 mb - 0.00 in0.0 mm 0.00 in0.0 mm
01:00 AM 7.3°F-13.7°C 2.7°F-16.3°C 81% Calm Calm -- 30.25 in1024.4 mb - 0.00 in0.0 mm 0.00 in0.0 mm
01:10 AM 7.1°F-13.8°C 2.5°F-16.4°C 81% Calm Calm -- 30.25 in1024.4 mb - 0.00 in0.0 mm 0.00 in0.0 mm
01:20 AM 6.9°F-13.9°C 2.6°F-16.3°C 82% Calm Calm -- 30.25 in1024.4 mb - 0.00 in0.0 mm 0.00 in0.0 mm
01:30 AM 6.7°F-14.1°C 2.4°F-16.4°C 82% Calm Calm -- 30.25 in1024.4 mb - 0.00 in0.0 mm 0.00 in0.0 mm
01:40 AM 6.4°F-14.2°C 2.1°F-16.6°C 82% Calm Calm -- 30.26 in1024.7 mb - 0.00 in0.0 mm 0.00 in0.0 mm
01:50 AM 6.2°F-14.3°C 1.9°F-16.7°C 82% Calm Calm -- 30.26 in1024.7 mb - 0.00 in0.0 mm 0.00 in0.0 mm
02:00 AM 5.9°F-14.5°C 1.6°F-16.9°C 82% Calm Calm -- 30.26 in1024.7 mb - 0.00 in0.0 mm 0.00 in0.0 mm
02:10 AM 5.6°F-14.7°C 1.3°F-17.1°C 82% Calm Calm -- 30.27 in1025.1 mb - 0.00 in0.0 mm 0.00 in0.0 mm
02:20 AM 5.5°F-14.7°C 1.2°F-17.1°C 82% Calm Calm -- 30.27 in1025.1 mb - 0.00 in0.0 mm 0.00 in0.0 mm
02:30 AM 5.3°F-14.8°C 1.0°F-17.2°C 82% Calm Calm -- 30.27 in1025.1 mb - 0.00 in0.0 mm 0.00 in0.0 mm
02:40 AM 5.1°F-14.9°C 0.8°F-17.3°C 82% Calm Calm -- 30.27 in1025.1 mb - 0.00 in0.0 mm 0.00 in0.0 mm
02:50 AM 4.8°F-15.1°C 0.5°F-17.5°C 82% Calm Calm -- 30.27 in1025.1 mb - 0.00 in0.0 mm 0.00 in0.0 mm
03:00 AM 4.6°F-15.2°C 0.3°F-17.6°C 82% Calm Calm -- 30.27 in1025.1 mb - 0.00 in0.0 mm 0.00 in0.0 mm
03:10 AM 4.4°F-15.3°C 0.1°F-17.7°C 82% Calm Calm -- 30.28 in1025.4 mb - 0.00 in0.0 mm 0.00 in0.0 mm
03:20 AM 4.1°F-15.5°C -0.2°F-17.9°C 82% Calm Calm -- 30.28 in1025.4 mb - 0.00 in0.0 mm 0.00 in0.0 mm
03:30 AM 3.9°F-15.6°C -0.1°F-17.8°C 83% Calm Calm -- 30.28 in1025.4 mb - 0.00 in0.0 mm 0.00 in0.0 mm
03:40 AM 3.7°F-15.7°C -0.1°F-17.8°C 84% Calm Calm -- 30.28 in1025.4 mb - 0.00 in0.0 mm 0.00 in0.0 mm
03:50 AM 3.6°F-15.8°C -0.2°F-17.9°C 84% Calm Calm -- 30.28 in1025.4 mb - 0.00 in0.0 mm 0.00 in0.0 mm
04:00 AM 3.4°F-15.9°C -0.6°F-18.1°C 83% Calm Calm -- 30.28 in1025.4 mb - 0.00 in0.0 mm 0.00 in0.0 mm
04:10 AM 3.2°F-16.0°C -0.5°F-18.1°C 84% Calm Calm -- 30.28 in1025.4 mb - 0.00 in0.0 mm 0.00 in0.0 mm
04:20 AM 2.9°F-16.2°C -1.0°F-18.3°C 83% Calm Calm -- 30.28 in1025.4 mb - 0.00 in0.0 mm 0.00 in0.0 mm
04:30 AM 2.7°F-16.3°C -1.0°F-18.3°C 84% Calm Calm -- 30.28 in1025.4 mb - 0.00 in0.0 mm 0.00 in0.0 mm
04:40 AM 2.5°F-16.4°C -1.2°F-18.4°C 84% Calm Calm -- 30.28 in1025.4 mb - 0.00 in0.0 mm 0.00 in0.0 mm
04:50 AM 2.3°F-16.5°C -1.4°F-18.6°C 84% Calm Calm -- 30.28 in1025.4 mb - 0.00 in0.0 mm 0.00 in0.0 mm
05:00 AM 2.1°F-16.6°C -1.6°F-18.7°C 84% Calm Calm -- 30.28 in1025.4 mb - 0.00 in0.0 mm 0.00 in0.0 mm
05:10 AM 2.0°F-16.7°C -1.7°F-18.7°C 84% Calm Calm -- 30.28 in1025.4 mb - 0.00 in0.0 mm 0.00 in0.0 mm
05:20 AM 1.8°F-16.8°C -1.9°F-18.8°C 84% Calm Calm -- 30.28 in1025.4 mb - 0.00 in0.0 mm 0.00 in0.0 mm
05:30 AM 1.7°F-16.8°C -2.0°F-18.9°C 84% Calm Calm -- 30.28 in1025.4 mb - 0.00 in0.0 mm 0.00 in0.0 mm
05:40 AM 1.6°F-16.9°C -2.1°F-18.9°C 84% Calm Calm -- 30.29 in1025.7 mb - 0.00 in0.0 mm 0.00 in0.0 mm
05:50 AM 1.4°F-17.0°C -2.3°F-19.1°C 84% Calm Calm -- 30.29 in1025.7 mb - 0.00 in0.0 mm 0.00 in0.0 mm
06:00 AM 1.3°F-17.1°C -2.4°F-19.1°C 84% Calm Calm -- 30.29 in1025.7 mb - 0.00 in0.0 mm 0.00 in0.0 mm
06:10 AM 1.1°F-17.2°C -2.6°F-19.2°C 84% Calm Calm -- 30.29 in1025.7 mb - 0.00 in0.0 mm 0.00 in0.0 mm
06:20 AM 1.0°F-17.2°C -2.7°F-19.3°C 84% Calm Calm -- 30.29 in1025.7 mb - 0.00 in0.0 mm 0.00 in0.0 mm
06:30 AM 0.9°F-17.3°C -2.6°F-19.2°C 85% Calm Calm -- 30.29 in1025.7 mb - 0.00 in0.0 mm 0.00 in0.0 mm
06:40 AM 0.8°F-17.3°C -2.7°F-19.3°C 85% Calm Calm -- 30.29 in1025.7 mb - 0.00 in0.0 mm 0.00 in0.0 mm
06:50 AM 0.8°F-17.3°C -2.7°F-19.3°C 85% Calm Calm -- 30.29 in1025.7 mb - 0.00 in0.0 mm 0.00 in0.0 mm
07:00 AM 0.8°F-17.3°C -2.7°F-19.3°C 85% Calm Calm -- 30.29 in1025.7 mb - 0.00 in0.0 mm 0.00 in0.0 mm
07:10 AM 1.0°F-17.2°C -2.2°F-19.0°C 86% Calm Calm -- 30.29 in1025.7 mb - 0.00 in0.0 mm 0.00 in0.0 mm
07:20 AM 1.4°F-17.0°C -1.6°F-18.7°C 87% Calm Calm -- 30.30 in1026.1 mb - 0.00 in0.0 mm 0.00 in0.0 mm
07:30 AM 2.1°F-16.6°C -0.4°F-18.0°C 89% Calm Calm -- 30.30 in1026.1 mb - 0.00 in0.0 mm 0.00 in0.0 mm
07:40 AM 3.3°F-15.9°C 1.1°F-17.2°C 90% Calm Calm -- 30.30 in1026.1 mb - 0.00 in0.0 mm 0.00 in0.0 mm
07:50 AM 4.8°F-15.1°C 2.5°F-16.4°C 90% Calm Calm -- 30.30 in1026.1 mb - 0.00 in0.0 mm 0.00 in0.0 mm
08:00 AM 6.8°F-14.0°C 4.5°F-15.3°C 90% Calm Calm -- 30.30 in1026.1 mb - 0.00 in0.0 mm 0.00 in0.0 mm
08:10 AM 10.4°F-12.0°C 6.3°F-14.3°C 83% Calm Calm -- 30.30 in1026.1 mb - 0.00 in0.0 mm 0.00 in0.0 mm
08:20 AM 13.6°F-10.2°C 7.8°F-13.4°C 77% Calm Calm -- 30.30 in1026.1 mb - 0.00 in0.0 mm 0.00 in0.0 mm
08:30 AM 16.4°F-8.7°C 9.3°F-12.6°C 73% Calm Calm -- 30.30 in1026.1 mb - 0.00 in0.0 mm 0.00 in0.0 mm
08:40 AM 18.9°F-7.3°C 10.4°F-12.0°C 69% Calm Calm -- 30.30 in1026.1 mb - 0.00 in0.0 mm 0.00 in0.0 mm
08:50 AM 22.2°F-5.4°C 12.9°F-10.6°C 67% Calm Calm -- 30.31 in1026.4 mb - 0.00 in0.0 mm 0.00 in0.0 mm
09:00 AM 22.9°F-5.1°C 12.9°F-10.6°C 65% Calm Calm -- 30.31 in1026.4 mb - 0.00 in0.0 mm 0.00 in0.0 mm
09:10 AM 24.4°F-4.2°C 12.9°F-10.6°C 61% Calm Calm -- 30.31 in1026.4 mb - 0.00 in0.0 mm 0.00 in0.0 mm
09:20 AM 25.1°F-3.8°C 12.7°F-10.7°C 59% Calm Calm -- 30.31 in1026.4 mb - 0.00 in0.0 mm 0.00 in0.0 mm
09:30 AM 25.8°F-3.4°C 12.3°F-10.9°C 56% Calm Calm -- 30.31 in1026.4 mb - 0.00 in0.0 mm 0.00 in0.0 mm
09:40 AM 26.5°F-3.1°C 12.0°F-11.1°C 54% Calm Calm -- 30.31 in1026.4 mb - 0.00 in0.0 mm 0.00 in0.0 mm
09:50 AM 28.1°F-2.2°C 11.8°F-11.2°C 50% Calm Calm -- 30.31 in1026.4 mb - 0.00 in0.0 mm 0.00 in0.0 mm
10:00 AM 28.8°F-1.8°C 11.6°F-11.3°C 48% Calm Calm -- 30.32 in1026.8 mb - 0.00 in0.0 mm 0.00 in0.0 mm
10:10 AM 29.9°F-1.2°C 11.1°F-11.6°C 45% Calm Calm -- 30.32 in1026.8 mb - 0.00 in0.0 mm 0.00 in0.0 mm
10:20 AM 30.9°F-0.6°C 12.0°F-11.1°C 45% Calm Calm -- 30.31 in1026.4 mb - 0.00 in0.0 mm 0.00 in0.0 mm
10:30 AM 31.3°F-0.4°C 9.7°F-12.4°C 40% Calm Calm -- 30.31 in1026.4 mb - 0.00 in0.0 mm 0.00 in0.0 mm
10:40 AM 32.1°F0.1°C 9.9°F-12.3°C 39% Calm Calm -- 30.31 in1026.4 mb - 0.00 in0.0 mm 0.00 in0.0 mm
10:50 AM 32.6°F0.3°C 9.7°F-12.4°C 38% Calm Calm 1.2 mph1.9 kmh 30.31 in1026.4 mb - 0.00 in0.0 mm 0.00 in0.0 mm
11:00 AM 32.9°F0.5°C 8.2°F-13.2°C 35% Calm Calm -- 30.32 in1026.8 mb - 0.00 in0.0 mm 0.00 in0.0 mm
11:10 AM 33.8°F1.0°C 8.4°F-13.1°C 34% 1.2 mph SE1.9 kmh SE 3.5 mph5.6 kmh 30.32 in1026.8 mb - 0.00 in0.0 mm 0.00 in0.0 mm
11:20 AM 35.0°F1.7°C 8.7°F-12.9°C 33% Calm Calm -- 30.31 in1026.4 mb - 0.00 in0.0 mm 0.00 in0.0 mm
11:30 AM 35.1°F1.7°C 8.8°F-12.9°C 33% Calm Calm -- 30.31 in1026.4 mb - 0.00 in0.0 mm 0.00 in0.0 mm
11:40 AM 35.3°F1.8°C 10.3°F-12.1°C 35% Calm Calm -- 30.31 in1026.4 mb - 0.00 in0.0 mm 0.00 in0.0 mm
11:50 AM 35.2°F1.8°C 10.3°F-12.1°C 35% Calm Calm -- 30.30 in1026.1 mb - 0.00 in0.0 mm 0.00 in0.0 mm
12:00 PM 36.5°F2.5°C 12.1°F-11.1°C 36% Calm Calm -- 30.30 in1026.1 mb - 0.00 in0.0 mm 0.00 in0.0 mm
12:10 PM 37.6°F3.1°C 13.0°F-10.6°C 36% Calm Calm -- 30.30 in1026.1 mb - 0.00 in0.0 mm 0.00 in0.0 mm
12:20 PM 37.3°F2.9°C 10.8°F-11.8°C 33% Calm Calm -- 30.29 in1025.7 mb - 0.00 in0.0 mm 0.00 in0.0 mm
12:30 PM 38.0°F3.3°C 11.4°F-11.4°C 33% 1.2 mph E1.9 kmh E -- 30.29 in1025.7 mb - 0.00 in0.0 mm 0.00 in0.0 mm
12:40 PM 38.7°F3.7°C 11.3°F-11.5°C 32% Calm Calm -- 30.28 in1025.4 mb - 0.00 in0.0 mm 0.00 in0.0 mm
12:50 PM 38.2°F3.4°C 10.9°F-11.7°C 32% Calm Calm -- 30.28 in1025.4 mb - 0.00 in0.0 mm 0.00 in0.0 mm
01:00 PM 39.5°F4.2°C 12.8°F-10.7°C 33% Calm Calm -- 30.27 in1025.1 mb - 0.00 in0.0 mm 0.00 in0.0 mm
01:10 PM 40.3°F4.6°C 12.7°F-10.7°C 32% Calm Calm -- 30.27 in1025.1 mb - 0.00 in0.0 mm 0.00 in0.0 mm
01:20 PM 39.7°F4.3°C 10.7°F-11.8°C 30% Calm Calm -- 30.26 in1024.7 mb - 0.00 in0.0 mm 0.00 in0.0 mm
01:30 PM 40.2°F4.6°C 13.4°F-10.3°C 33% Calm Calm -- 30.25 in1024.4 mb - 0.00 in0.0 mm 0.00 in0.0 mm
01:40 PM 40.9°F4.9°C 14.0°F-10.0°C 33% Calm Calm -- 30.25 in1024.4 mb - 0.00 in0.0 mm 0.00 in0.0 mm
01:50 PM 40.8°F4.9°C 12.5°F-10.8°C 31% Calm Calm -- 30.25 in1024.4 mb - 0.00 in0.0 mm 0.00 in0.0 mm
02:00 PM 41.6°F5.3°C 13.2°F-10.4°C 31% Calm Calm -- 30.24 in1024.0 mb - 0.00 in0.0 mm 0.00 in0.0 mm
02:10 PM 42.1°F5.6°C 12.0°F-11.1°C 29% Calm Calm -- 30.24 in1024.0 mb - 0.00 in0.0 mm 0.00 in0.0 mm
02:20 PM 42.2°F5.7°C 13.7°F-10.2°C 31% Calm Calm -- 30.24 in1024.0 mb - 0.00 in0.0 mm 0.00 in0.0 mm
02:30 PM 42.6°F5.9°C 13.3°F-10.4°C 30% Calm Calm -- 30.23 in1023.7 mb - 0.00 in0.0 mm 0.00 in0.0 mm
02:40 PM 42.9°F6.1°C 14.3°F-9.8°C 31% Calm Calm -- 30.23 in1023.7 mb - 0.00 in0.0 mm 0.00 in0.0 mm
02:50 PM 42.8°F6.0°C 12.7°F-10.7°C 29% Calm Calm -- 30.22 in1023.4 mb - 0.00 in0.0 mm 0.00 in0.0 mm
03:00 PM 42.5°F5.8°C 13.2°F-10.4°C 30% Calm Calm -- 30.22 in1023.4 mb - 0.00 in0.0 mm 0.00 in0.0 mm
03:10 PM 43.0°F6.1°C 16.5°F-8.6°C 34% Calm Calm -- 30.21 in1023.0 mb - 0.00 in0.0 mm 0.00 in0.0 mm
03:20 PM 42.8°F6.0°C 14.2°F-9.9°C 31% Calm Calm -- 30.21 in1023.0 mb - 0.00 in0.0 mm 0.00 in0.0 mm
03:30 PM 42.2°F5.7°C 12.9°F-10.6°C 30% Calm Calm -- 30.21 in1023.0 mb - 0.00 in0.0 mm 0.00 in0.0 mm
03:40 PM 42.4°F5.8°C 14.6°F-9.7°C 32% Calm Calm -- 30.20 in1022.7 mb - 0.00 in0.0 mm 0.00 in0.0 mm
03:50 PM 42.8°F6.0°C 14.2°F-9.9°C 31% Calm Calm -- 30.20 in1022.7 mb - 0.00 in0.0 mm 0.00 in0.0 mm
04:00 PM 42.6°F5.9°C 16.2°F-8.8°C 34% Calm Calm -- 30.20 in1022.7 mb - 0.00 in0.0 mm 0.00 in0.0 mm
04:10 PM 42.6°F5.9°C 14.0°F-10.0°C 31% Calm Calm -- 30.20 in1022.7 mb - 0.00 in0.0 mm 0.00 in0.0 mm
04:20 PM 42.7°F5.9°C 16.2°F-8.8°C 34% Calm Calm -- 30.20 in1022.7 mb - 0.00 in0.0 mm 0.00 in0.0 mm
04:30 PM 43.0°F6.1°C 16.5°F-8.6°C 34% Calm Calm -- 30.20 in1022.7 mb - 0.00 in0.0 mm 0.00 in0.0 mm
04:40 PM 42.9°F6.1°C 13.5°F-10.3°C 30% Calm Calm -- 30.19 in1022.4 mb - 0.00 in0.0 mm 0.00 in0.0 mm
04:50 PM 42.5°F5.8°C 16.1°F-8.8°C 34% Calm Calm -- 30.19 in1022.4 mb - 0.00 in0.0 mm 0.00 in0.0 mm
05:00 PM 42.1°F5.6°C 19.5°F-6.9°C 40% Calm Calm -- 30.19 in1022.4 mb - 0.00 in0.0 mm 0.00 in0.0 mm
05:10 PM 42.3°F5.7°C 16.6°F-8.6°C 35% Calm Calm -- 30.18 in1022.0 mb - 0.00 in0.0 mm 0.00 in0.0 mm
05:20 PM 42.1°F5.6°C 17.0°F-8.3°C 36% Calm Calm -- 30.18 in1022.0 mb - 0.00 in0.0 mm 0.00 in0.0 mm
05:30 PM 41.0°F5.0°C 19.0°F-7.2°C 41% Calm Calm -- 30.18 in1022.0 mb - 0.00 in0.0 mm 0.00 in0.0 mm
05:40 PM 38.9°F3.8°C 21.3°F-5.9°C 49% Calm Calm -- 30.17 in1021.7 mb - 0.00 in0.0 mm 0.00 in0.0 mm
05:50 PM 37.6°F3.1°C 19.2°F-7.1°C 47% Calm Calm -- 30.17 in1021.7 mb - 0.00 in0.0 mm 0.00 in0.0 mm
06:00 PM 36.6°F2.6°C 20.6°F-6.3°C 52% Calm Calm -- 30.17 in1021.7 mb - 0.00 in0.0 mm 0.00 in0.0 mm
06:10 PM 34.2°F1.2°C 19.7°F-6.8°C 55% Calm Calm -- 30.17 in1021.7 mb - 0.00 in0.0 mm 0.00 in0.0 mm
06:20 PM 33.5°F0.8°C 20.7°F-6.3°C 59% Calm Calm -- 30.17 in1021.7 mb - 0.00 in0.0 mm 0.00 in0.0 mm
06:30 PM 31.6°F-0.2°C 22.2°F-5.4°C 68% Calm Calm -- 30.17 in1021.7 mb - 0.00 in0.0 mm 0.00 in0.0 mm
06:40 PM 30.5°F-0.8°C 23.2°F-4.9°C 74% Calm Calm -- 30.17 in1021.7 mb - 0.00 in0.0 mm 0.00 in0.0 mm
06:50 PM 30.1°F-1.1°C 21.8°F-5.7°C 71% Calm Calm -- 30.18 in1022.0 mb - 0.00 in0.0 mm 0.00 in0.0 mm
07:00 PM 29.1°F-1.6°C 21.8°F-5.7°C 74% Calm Calm -- 30.18 in1022.0 mb - 0.00 in0.0 mm 0.00 in0.0 mm
07:10 PM 28.6°F-1.9°C 21.7°F-5.7°C 75% Calm Calm -- 30.18 in1022.0 mb - 0.00 in0.0 mm 0.00 in0.0 mm
07:20 PM 28.0°F-2.2°C 20.8°F-6.2°C 74% Calm Calm -- 30.18 in1022.0 mb - 0.00 in0.0 mm 0.00 in0.0 mm
07:30 PM 27.6°F-2.4°C 19.8°F-6.8°C 72% Calm Calm -- 30.18 in1022.0 mb - 0.00 in0.0 mm 0.00 in0.0 mm
07:40 PM 27.2°F-2.7°C 20.6°F-6.3°C 76% Calm Calm -- 30.18 in1022.0 mb - 0.00 in0.0 mm 0.00 in0.0 mm
07:50 PM 27.1°F-2.7°C 19.6°F-6.9°C 73% Calm Calm -- 30.18 in1022.0 mb - 0.00 in0.0 mm 0.00 in0.0 mm
08:00 PM 26.6°F-3.0°C 18.8°F-7.3°C 72% Calm Calm -- 30.18 in1022.0 mb - 0.00 in0.0 mm 0.00 in0.0 mm
08:10 PM 26.1°F-3.3°C 19.5°F-6.9°C 76% Calm Calm -- 30.18 in1022.0 mb - 0.00 in0.0 mm 0.00 in0.0 mm
08:20 PM 26.2°F-3.2°C 19.4°F-7.0°C 75% Calm Calm -- 30.18 in1022.0 mb - 0.00 in0.0 mm 0.00 in0.0 mm
08:30 PM 25.8°F-3.4°C 18.3°F-7.6°C 73% Calm Calm -- 30.18 in1022.0 mb - 0.00 in0.0 mm 0.00 in0.0 mm
08:40 PM 25.3°F-3.7°C 18.1°F-7.7°C 74% Calm Calm -- 30.18 in1022.0 mb - 0.00 in0.0 mm 0.00 in0.0 mm
08:50 PM 24.9°F-3.9°C 19.0°F-7.2°C 78% Calm Calm -- 30.18 in1022.0 mb - 0.00 in0.0 mm 0.00 in0.0 mm
09:00 PM 24.6°F-4.1°C 18.1°F-7.7°C 76% Calm Calm -- 30.18 in1022.0 mb - 0.00 in0.0 mm 0.00 in0.0 mm
09:10 PM 24.2°F-4.3°C 18.6°F-7.4°C 79% Calm Calm -- 30.18 in1022.0 mb - 0.00 in0.0 mm 0.00 in0.0 mm
09:20 PM 23.7°F-4.6°C 17.5°F-8.1°C 77% Calm Calm -- 30.18 in1022.0 mb - 0.00 in0.0 mm 0.00 in0.0 mm
09:30 PM 23.4°F-4.8°C 17.5°F-8.1°C 78% Calm Calm -- 30.18 in1022.0 mb - 0.00 in0.0 mm 0.00 in0.0 mm
09:40 PM 23.0°F-5.0°C 17.7°F-7.9°C 80% Calm Calm -- 30.18 in1022.0 mb - 0.00 in0.0 mm 0.00 in0.0 mm
09:50 PM 22.6°F-5.2°C 17.7°F-7.9°C 81% Calm Calm -- 30.17 in1021.7 mb - 0.00 in0.0 mm 0.00 in0.0 mm
10:00 PM 22.1°F-5.5°C 17.4°F-8.1°C 82% Calm Calm -- 30.18 in1022.0 mb - 0.00 in0.0 mm 0.00 in0.0 mm
10:10 PM 21.9°F-5.6°C 17.0°F-8.3°C 81% Calm Calm -- 30.17 in1021.7 mb - 0.00 in0.0 mm 0.00 in0.0 mm
10:20 PM 21.3°F-5.9°C 16.7°F-8.5°C 82% Calm Calm -- 30.17 in1021.7 mb - 0.00 in0.0 mm 0.00 in0.0 mm
10:30 PM 21.0°F-6.1°C 16.1°F-8.8°C 81% Calm Calm -- 30.17 in1021.7 mb - 0.00 in0.0 mm 0.00 in0.0 mm
10:40 PM 20.6°F-6.3°C 15.7°F-9.1°C 81% Calm Calm -- 30.17 in1021.7 mb - 0.00 in0.0 mm 0.00 in0.0 mm
10:50 PM 20.2°F-6.6°C 15.6°F-9.1°C 82% Calm Calm -- 30.18 in1022.0 mb - 0.00 in0.0 mm 0.00 in0.0 mm
11:00 PM 20.2°F-6.6°C 15.3°F-9.3°C 81% Calm Calm -- 30.18 in1022.0 mb - 0.00 in0.0 mm 0.00 in0.0 mm
11:10 PM 19.7°F-6.8°C 15.1°F-9.4°C 82% Calm Calm -- 30.18 in1022.0 mb - 0.00 in0.0 mm 0.00 in0.0 mm
11:20 PM 19.4°F-7.0°C 14.8°F-9.6°C 82% Calm Calm -- 30.18 in1022.0 mb - 0.00 in0.0 mm 0.00 in0.0 mm
11:30 PM 18.8°F-7.3°C 14.5°F-9.7°C 83% Calm Calm -- 30.17 in1021.7 mb - 0.00 in0.0 mm 0.00 in0.0 mm
11:40 PM 18.6°F-7.4°C 14.8°F-9.6°C 85% Calm Calm -- 30.17 in1021.7 mb - 0.00 in0.0 mm 0.00 in0.0 mm
11:50 PM 18.5°F-7.5°C 14.4°F-9.8°C 84% Calm Calm -- 30.16 in1021.3 mb - 0.00 in0.0 mm 0.00 in0.0 mm